SVA734 OKKK-OEJN
Flight info
| Callsign | SVA734 |
|---|---|
| Flight time | N/A |
| Altitude | 30000 |
| Route | KFR DCT DEKOB P517 KMC B417 GAS G674 PMA B544 RBG/N0480F310 B544 NOMDA |
| Aircraft | A320/M-SDE3FGHIRWY/LB1 |
Departure
| Time | 2026-04-30 21:43 |
|---|---|
| Airport | Kuwait International Airport (OKKK) |
Arrival
| Time | N/A |
|---|---|
| Airport | King Abdulaziz International Airport (OEJN) |
| Time | Latitude | Longitude | Altitude | Speed | Heading |
|---|---|---|---|---|---|
| 2026-04-30 21:07 | 29.23809 | 47.97302 | 159 ft | 0 kts | 263° |
| 2026-04-30 21:31 | 29.23810 | 47.97307 | 159 ft | 4 kts | 263° |
| 2026-04-30 21:31 | 29.23822 | 47.97367 | 160 ft | 4 kts | 239° |
| 2026-04-30 21:32 | 29.23841 | 47.97383 | 160 ft | 0 kts | 155° |
| 2026-04-30 21:34 | 29.23828 | 47.97390 | 160 ft | 9 kts | 155° |
| 2026-04-30 21:35 | 29.23763 | 47.97425 | 161 ft | 10 kts | 154° |
| 2026-04-30 21:35 | 29.23708 | 47.97457 | 161 ft | 11 kts | 155° |
| 2026-04-30 21:35 | 29.23691 | 47.97533 | 163 ft | 11 kts | 56° |
| 2026-04-30 21:35 | 29.23736 | 47.97651 | 165 ft | 19 kts | 68° |
| 2026-04-30 21:36 | 29.23782 | 47.97791 | 167 ft | 19 kts | 69° |
| 2026-04-30 21:36 | 29.23836 | 47.97940 | 169 ft | 20 kts | 64° |
| 2026-04-30 21:37 | 29.23858 | 47.98223 | 174 ft | 19 kts | 155° |
| 2026-04-30 21:37 | 29.23692 | 47.98305 | 176 ft | 27 kts | 153° |
| 2026-04-30 21:37 | 29.23523 | 47.98400 | 179 ft | 27 kts | 157° |
| 2026-04-30 21:37 | 29.23355 | 47.98492 | 182 ft | 27 kts | 155° |
| 2026-04-30 21:38 | 29.23188 | 47.98581 | 187 ft | 27 kts | 155° |
| 2026-04-30 21:38 | 29.23019 | 47.98668 | 189 ft | 27 kts | 156° |
| 2026-04-30 21:38 | 29.22851 | 47.98760 | 195 ft | 27 kts | 153° |
| 2026-04-30 21:38 | 29.22682 | 47.98844 | 193 ft | 26 kts | 156° |
| 2026-04-30 21:39 | 29.22517 | 47.98936 | 202 ft | 26 kts | 152° |
| 2026-04-30 21:39 | 29.22352 | 47.99027 | 203 ft | 26 kts | 155° |
| 2026-04-30 21:39 | 29.22186 | 47.99113 | 198 ft | 26 kts | 154° |
| 2026-04-30 21:39 | 29.22019 | 47.99200 | 207 ft | 26 kts | 155° |
| 2026-04-30 21:40 | 29.21855 | 47.99290 | 206 ft | 26 kts | 155° |
| 2026-04-30 21:40 | 29.21687 | 47.99376 | 207 ft | 26 kts | 155° |
| 2026-04-30 21:40 | 29.21521 | 47.99465 | 207 ft | 26 kts | 154° |
| 2026-04-30 21:40 | 29.21357 | 47.99554 | 209 ft | 26 kts | 154° |
| 2026-04-30 21:41 | 29.21230 | 47.99621 | 217 ft | 14 kts | 156° |
| 2026-04-30 21:41 | 29.21168 | 47.99657 | 213 ft | 9 kts | 138° |
| 2026-04-30 21:41 | 29.21161 | 47.99726 | 213 ft | 11 kts | 76° |
| 2026-04-30 21:41 | 29.21203 | 47.99805 | 213 ft | 14 kts | 37° |
| 2026-04-30 21:42 | 29.21301 | 47.99832 | 219 ft | 15 kts | 0° |
| 2026-04-30 21:42 | 29.21419 | 47.99780 | 211 ft | 28 kts | 333° |
| 2026-04-30 21:42 | 29.21826 | 47.99560 | 205 ft | 98 kts | 335° |
| 2026-04-30 21:42 | 29.22619 | 47.99142 | 200 ft | 152 kts | 335° |
| 2026-04-30 21:43 | 29.23710 | 47.98565 | 259 ft | 188 kts | 336° |
| 2026-04-30 21:43 | 29.24911 | 47.97969 | 852 ft | 188 kts | 338° |
| 2026-04-30 21:43 | 29.26123 | 47.97394 | 1555 ft | 189 kts | 340° |
| 2026-04-30 21:43 | 29.27360 | 47.96815 | 2168 ft | 193 kts | 339° |
| 2026-04-30 21:44 | 29.28548 | 47.96148 | 2769 ft | 193 kts | 324° |
| 2026-04-30 21:44 | 29.29418 | 47.94920 | 3252 ft | 204 kts | 295° |
| 2026-04-30 21:44 | 29.29666 | 47.93318 | 3744 ft | 212 kts | 267° |
| 2026-04-30 21:44 | 29.29218 | 47.91719 | 4028 ft | 213 kts | 238° |
| 2026-04-30 21:45 | 29.28117 | 47.90618 | 4137 ft | 214 kts | 205° |
| 2026-04-30 21:45 | 29.26643 | 47.90335 | 4137 ft | 216 kts | 172° |
| 2026-04-30 21:45 | 29.25217 | 47.90874 | 4029 ft | 217 kts | 155° |
| 2026-04-30 21:45 | 29.23866 | 47.91618 | 4006 ft | 215 kts | 154° |
| 2026-04-30 21:46 | 29.22537 | 47.92354 | 4014 ft | 228 kts | 154° |
| 2026-04-30 21:46 | 29.21030 | 47.93183 | 4184 ft | 251 kts | 156° |
| 2026-04-30 21:46 | 29.19334 | 47.93721 | 4761 ft | 257 kts | 172° |
| 2026-04-30 21:46 | 29.17533 | 47.93958 | 5375 ft | 265 kts | 176° |
| 2026-04-30 21:47 | 29.15673 | 47.94134 | 6076 ft | 270 kts | 177° |
| 2026-04-30 21:47 | 29.13784 | 47.94308 | 6829 ft | 273 kts | 178° |
| 2026-04-30 21:47 | 29.11883 | 47.94480 | 7594 ft | 275 kts | 179° |
| 2026-04-30 21:47 | 29.09963 | 47.94656 | 8317 ft | 280 kts | 179° |
| 2026-04-30 21:48 | 29.07998 | 47.94834 | 8969 ft | 288 kts | 180° |
| 2026-04-30 21:48 | 29.05975 | 47.95014 | 9494 ft | 294 kts | 181° |
| 2026-04-30 21:48 | 29.03917 | 47.95202 | 9994 ft | 297 kts | 181° |
| 2026-04-30 21:48 | 29.01824 | 47.95393 | 10469 ft | 307 kts | 181° |
| 2026-04-30 21:49 | 28.99652 | 47.95585 | 10951 ft | 319 kts | 181° |
| 2026-04-30 21:49 | 28.97400 | 47.95698 | 11430 ft | 329 kts | 184° |
| 2026-04-30 21:49 | 28.95077 | 47.95722 | 11858 ft | 341 kts | 186° |
| 2026-04-30 21:49 | 28.92669 | 47.95708 | 12271 ft | 353 kts | 186° |
| 2026-04-30 21:50 | 28.90184 | 47.95682 | 12693 ft | 364 kts | 186° |
| 2026-04-30 21:50 | 28.87617 | 47.95662 | 13136 ft | 374 kts | 186° |
| 2026-04-30 21:50 | 28.84981 | 47.95655 | 13562 ft | 383 kts | 186° |
| 2026-04-30 21:50 | 28.82285 | 47.95664 | 14041 ft | 390 kts | 186° |
| 2026-04-30 21:51 | 28.79566 | 47.95680 | 14584 ft | 392 kts | 185° |
| 2026-04-30 21:51 | 28.76785 | 47.95701 | 15140 ft | 395 kts | 185° |
| 2026-04-30 21:51 | 28.74036 | 47.95726 | 15704 ft | 398 kts | 185° |
| 2026-04-30 21:51 | 28.71295 | 47.95748 | 16259 ft | 400 kts | 186° |
| 2026-04-30 21:52 | 28.68463 | 47.95769 | 16822 ft | 402 kts | 186° |
| 2026-04-30 21:52 | 28.65687 | 47.95588 | 17358 ft | 398 kts | 195° |
| 2026-04-30 21:52 | 28.63026 | 47.94808 | 17868 ft | 394 kts | 205° |
| 2026-04-30 21:52 | 28.60735 | 47.93578 | 18324 ft | 390 kts | 215° |
| 2026-04-30 21:53 | 28.58521 | 47.91760 | 18754 ft | 387 kts | 225° |
| 2026-04-30 21:53 | 28.56594 | 47.89623 | 19185 ft | 388 kts | 228° |
| 2026-04-30 21:53 | 28.54674 | 47.87453 | 19619 ft | 390 kts | 228° |
| 2026-04-30 21:53 | 28.52738 | 47.85268 | 20049 ft | 392 kts | 228° |
| 2026-04-30 21:54 | 28.50798 | 47.83079 | 20469 ft | 394 kts | 228° |
| 2026-04-30 21:54 | 28.48852 | 47.80872 | 20870 ft | 397 kts | 228° |
| 2026-04-30 21:54 | 28.46891 | 47.78644 | 21264 ft | 399 kts | 228° |
| 2026-04-30 21:54 | 28.44925 | 47.76408 | 21654 ft | 401 kts | 228° |
| 2026-04-30 21:55 | 28.42960 | 47.74170 | 22025 ft | 403 kts | 228° |
| 2026-04-30 21:55 | 28.41643 | 47.72671 | 22273 ft | 404 kts | 228° |
| 2026-04-30 21:55 | 28.39645 | 47.70402 | 22635 ft | 406 kts | 228° |
| 2026-04-30 21:55 | 28.37638 | 47.68131 | 22980 ft | 408 kts | 228° |
| 2026-04-30 21:56 | 28.35620 | 47.65851 | 23333 ft | 410 kts | 228° |
| 2026-04-30 21:56 | 28.33591 | 47.63558 | 23648 ft | 412 kts | 228° |
| 2026-04-30 21:56 | 28.31558 | 47.61262 | 23943 ft | 414 kts | 228° |
| 2026-04-30 21:56 | 28.29516 | 47.58957 | 24218 ft | 415 kts | 228° |
| 2026-04-30 21:57 | 28.26767 | 47.55850 | 24602 ft | 417 kts | 228° |
| 2026-04-30 21:57 | 28.25409 | 47.54316 | 24784 ft | 418 kts | 228° |
| 2026-04-30 21:57 | 28.23357 | 47.51971 | 25053 ft | 418 kts | 231° |
| 2026-04-30 21:57 | 28.21595 | 47.49365 | 25306 ft | 416 kts | 240° |
| 2026-04-30 21:58 | 28.20269 | 47.46416 | 25562 ft | 415 kts | 250° |
| 2026-04-30 21:58 | 28.19450 | 47.43281 | 25802 ft | 416 kts | 258° |
| 2026-04-30 21:58 | 28.18930 | 47.40052 | 26041 ft | 417 kts | 259° |
| 2026-04-30 21:58 | 28.18410 | 47.36811 | 26271 ft | 418 kts | 259° |
| 2026-04-30 21:59 | 28.17887 | 47.33576 | 26497 ft | 419 kts | 259° |
| 2026-04-30 21:59 | 28.17360 | 47.30329 | 26705 ft | 420 kts | 259° |
| 2026-04-30 21:59 | 28.16833 | 47.27079 | 26969 ft | 420 kts | 259° |
| 2026-04-30 22:00 | 28.15774 | 47.20599 | 27592 ft | 417 kts | 259° |
| 2026-04-30 22:00 | 28.14722 | 47.14162 | 28216 ft | 415 kts | 259° |
| 2026-04-30 22:00 | 28.14196 | 47.10950 | 28533 ft | 414 kts | 259° |
| 2026-04-30 22:01 | 28.13673 | 47.07754 | 28846 ft | 412 kts | 259° |
| 2026-04-30 22:01 | 28.13151 | 47.04563 | 29169 ft | 411 kts | 259° |
| 2026-04-30 22:01 | 28.12628 | 47.01382 | 29479 ft | 410 kts | 259° |
| 2026-04-30 22:01 | 28.12104 | 46.98209 | 29813 ft | 409 kts | 259° |
| 2026-04-30 22:02 | 28.11579 | 46.95041 | 29962 ft | 410 kts | 259° |
| 2026-04-30 22:02 | 28.11048 | 46.91855 | 29974 ft | 412 kts | 259° |
| 2026-04-30 22:02 | 28.09991 | 46.85479 | 29977 ft | 412 kts | 259° |
| 2026-04-30 22:03 | 28.07946 | 46.79511 | 29979 ft | 415 kts | 240° |
| 2026-04-30 22:03 | 28.04847 | 46.74054 | 29975 ft | 416 kts | 239° |
| 2026-04-30 22:04 | 28.01686 | 46.68567 | 29979 ft | 415 kts | 239° |
| 2026-04-30 22:05 | 27.96952 | 46.60335 | 29985 ft | 415 kts | 239° |
| 2026-04-30 22:05 | 27.93817 | 46.54852 | 29980 ft | 415 kts | 239° |
| 2026-04-30 22:06 | 27.90682 | 46.49375 | 29985 ft | 415 kts | 239° |
| 2026-04-30 22:06 | 27.85957 | 46.41186 | 29987 ft | 415 kts | 239° |
| 2026-04-30 22:07 | 27.82815 | 46.35721 | 29993 ft | 415 kts | 239° |
| 2026-04-30 22:07 | 27.79673 | 46.30261 | 29993 ft | 414 kts | 239° |
| 2026-04-30 22:08 | 27.76525 | 46.24813 | 29999 ft | 414 kts | 239° |
| 2026-04-30 22:08 | 27.73368 | 46.19362 | 29998 ft | 414 kts | 239° |
| 2026-04-30 22:09 | 27.70230 | 46.13943 | 29997 ft | 414 kts | 239° |
| 2026-04-30 22:09 | 27.67055 | 46.08472 | 30001 ft | 414 kts | 239° |
| 2026-04-30 22:10 | 27.63897 | 46.03037 | 29996 ft | 414 kts | 239° |
| 2026-04-30 22:10 | 27.60741 | 45.97603 | 29994 ft | 414 kts | 240° |
| 2026-04-30 22:11 | 27.56016 | 45.89472 | 29992 ft | 414 kts | 239° |
| 2026-04-30 22:12 | 27.52857 | 45.84051 | 29992 ft | 414 kts | 239° |
| 2026-04-30 22:12 | 27.49689 | 45.78635 | 29994 ft | 414 kts | 239° |
| 2026-04-30 22:13 | 27.46529 | 45.73227 | 30000 ft | 414 kts | 239° |
| 2026-04-30 22:13 | 27.43360 | 45.67813 | 30005 ft | 413 kts | 239° |
| 2026-04-30 22:14 | 27.40202 | 45.62418 | 30007 ft | 413 kts | 239° |
| 2026-04-30 22:14 | 27.37040 | 45.57028 | 30001 ft | 413 kts | 239° |
| 2026-04-30 22:15 | 27.33889 | 45.51662 | 30006 ft | 412 kts | 239° |
| 2026-04-30 22:15 | 27.30724 | 45.46283 | 30006 ft | 412 kts | 239° |
| 2026-04-30 22:16 | 27.27558 | 45.40908 | 30008 ft | 412 kts | 239° |
| 2026-04-30 22:17 | 27.21216 | 45.30151 | 30005 ft | 411 kts | 240° |
| 2026-04-30 22:17 | 27.16469 | 45.22114 | 30004 ft | 411 kts | 239° |
| 2026-04-30 22:18 | 27.11729 | 45.14099 | 30001 ft | 411 kts | 239° |
| 2026-04-30 22:19 | 27.06970 | 45.06093 | 30003 ft | 411 kts | 239° |
| 2026-04-30 22:20 | 27.02216 | 44.98096 | 30000 ft | 410 kts | 240° |
| 2026-04-30 22:20 | 26.97469 | 44.90104 | 29993 ft | 410 kts | 239° |
| 2026-04-30 22:21 | 26.94304 | 44.84792 | 29994 ft | 410 kts | 239° |
| 2026-04-30 22:21 | 26.91129 | 44.79477 | 29991 ft | 410 kts | 240° |
| 2026-04-30 22:22 | 26.87954 | 44.74160 | 29992 ft | 410 kts | 239° |
| 2026-04-30 22:22 | 26.84777 | 44.68853 | 29994 ft | 410 kts | 240° |
| 2026-04-30 22:23 | 26.81581 | 44.63519 | 29985 ft | 410 kts | 239° |
| 2026-04-30 22:23 | 26.78425 | 44.58248 | 29987 ft | 410 kts | 239° |
| 2026-04-30 22:24 | 26.75248 | 44.52968 | 29982 ft | 410 kts | 239° |
| 2026-04-30 22:24 | 26.72062 | 44.47672 | 29975 ft | 410 kts | 239° |
| 2026-04-30 22:25 | 26.68880 | 44.42380 | 29978 ft | 410 kts | 239° |
| 2026-04-30 22:25 | 26.65695 | 44.37095 | 29978 ft | 410 kts | 239° |
| 2026-04-30 22:26 | 26.60914 | 44.29170 | 29978 ft | 410 kts | 239° |
| 2026-04-30 22:27 | 26.58265 | 44.24784 | 29974 ft | 410 kts | 239° |
| 2026-04-30 22:27 | 26.53473 | 44.16872 | 29978 ft | 410 kts | 239° |
| 2026-04-30 22:28 | 26.48695 | 44.08993 | 29979 ft | 411 kts | 239° |
| 2026-04-30 22:29 | 26.42553 | 43.98897 | 29972 ft | 411 kts | 239° |
| 2026-04-30 22:31 | 26.31324 | 43.80445 | 29953 ft | 411 kts | 239° |
| 2026-04-30 22:32 | 26.25018 | 43.66288 | 29955 ft | 408 kts | 248° |
| 2026-04-30 22:33 | 26.19101 | 43.51907 | 29958 ft | 409 kts | 248° |
| 2026-04-30 22:35 | 26.13160 | 43.37506 | 29972 ft | 411 kts | 248° |
| 2026-04-30 22:36 | 26.07165 | 43.23025 | 29978 ft | 411 kts | 247° |
| 2026-04-30 22:37 | 26.02363 | 43.11484 | 29977 ft | 411 kts | 247° |
| 2026-04-30 22:38 | 25.97561 | 42.99946 | 29970 ft | 411 kts | 247° |
| 2026-04-30 22:39 | 25.93954 | 42.91297 | 29956 ft | 411 kts | 247° |
| 2026-04-30 22:40 | 25.86713 | 42.74021 | 29955 ft | 411 kts | 247° |
| 2026-04-30 22:41 | 25.80666 | 42.59631 | 29951 ft | 412 kts | 246° |
| 2026-04-30 22:43 | 25.73377 | 42.42375 | 29948 ft | 413 kts | 246° |
| 2026-04-30 22:44 | 25.68487 | 42.30809 | 29944 ft | 413 kts | 246° |
| 2026-04-30 22:45 | 25.61135 | 42.13491 | 29944 ft | 414 kts | 246° |
| 2026-04-30 22:47 | 25.53738 | 41.96173 | 29946 ft | 415 kts | 246° |
| 2026-04-30 22:48 | 25.48798 | 41.84620 | 29952 ft | 415 kts | 246° |
| 2026-04-30 22:49 | 25.41348 | 41.67291 | 29953 ft | 416 kts | 246° |
| 2026-04-30 22:51 | 25.33894 | 41.50015 | 29959 ft | 416 kts | 246° |
| 2026-04-30 22:52 | 25.30154 | 41.41366 | 29960 ft | 415 kts | 246° |
| 2026-04-30 22:53 | 25.25170 | 41.29848 | 29975 ft | 415 kts | 246° |
| 2026-04-30 22:53 | 25.21425 | 41.21230 | 29979 ft | 415 kts | 245° |
| 2026-04-30 22:55 | 25.15181 | 41.06890 | 29981 ft | 415 kts | 245° |
| 2026-04-30 22:56 | 25.10684 | 40.96589 | 29986 ft | 415 kts | 245° |
| 2026-04-30 22:57 | 25.04398 | 40.82267 | 29983 ft | 415 kts | 245° |
| 2026-04-30 22:58 | 24.99361 | 40.70791 | 29978 ft | 416 kts | 245° |
| 2026-04-30 22:59 | 24.91754 | 40.53546 | 29982 ft | 416 kts | 245° |